createdAt,value
2023-01-23T00:00:15.703Z,101192.78
2023-01-23T00:01:22.594Z,101193.63
2023-01-23T00:02:25.374Z,101191.81
2023-01-23T00:03:27.452Z,101193.47
2023-01-23T00:04:29.419Z,101184.72
2023-01-23T00:05:31.468Z,101195.06
2023-01-23T00:06:33.232Z,101205.28
2023-01-23T00:07:35.252Z,101189.91
2023-01-23T00:08:37.597Z,101193.28
2023-01-23T00:09:39.501Z,101168.13
2023-01-23T00:10:41.341Z,101192.34
2023-01-23T00:11:43.277Z,101185.41
2023-01-23T00:12:45.805Z,101187.16
2023-01-23T00:13:49.068Z,101184.50
2023-01-23T00:14:51.281Z,101187.91
2023-01-23T00:15:53.722Z,101192.22
2023-01-23T00:16:55.455Z,101184.47
2023-01-23T00:17:58.318Z,101193.09
2023-01-23T00:19:00.764Z,101188.78
2023-01-23T00:20:04.516Z,101191.34
2023-01-23T00:21:08.653Z,101195.63
2023-01-23T00:22:11.360Z,101186.19
2023-01-23T00:23:15.114Z,101183.63
2023-01-23T00:24:17.030Z,101187.91
2023-01-23T00:25:18.713Z,101188.84
2023-01-23T00:26:24.812Z,101186.25
2023-01-23T00:27:27.536Z,101191.41
2023-01-23T00:28:29.450Z,101189.66
2023-01-23T00:29:31.163Z,101184.53
2023-01-23T00:30:33.999Z,101188.84
2023-01-23T00:31:38.392Z,101190.53
2023-01-23T00:32:40.247Z,101188.84
2023-01-23T00:33:44.003Z,101189.75
2023-01-23T00:34:46.902Z,101188.91
2023-01-23T00:35:48.509Z,101186.28
2023-01-23T00:36:50.358Z,101173.38
2023-01-23T00:37:52.136Z,101184.59
2023-01-23T00:38:53.901Z,101178.63
2023-01-23T00:39:55.788Z,101178.56
2023-01-23T00:40:57.916Z,101175.28
2023-01-23T00:41:59.845Z,101181.31
2023-01-23T00:43:02.788Z,101165.72
2023-01-23T00:44:05.042Z,101179.63
2023-01-23T00:45:07.282Z,101173.59
2023-01-23T00:46:10.183Z,101176.16
2023-01-23T00:47:13.666Z,101176.16
2023-01-23T00:48:16.065Z,101176.06
2023-01-23T00:49:17.938Z,101180.22
2023-01-23T00:50:19.996Z,101185.31
2023-01-23T00:51:22.188Z,101187.84
2023-01-23T00:52:23.909Z,101190.34
2023-01-23T00:53:25.865Z,101181.72
2023-01-23T00:54:27.631Z,101182.53
2023-01-23T00:55:29.504Z,101191.03
2023-01-23T00:56:32.596Z,101184.16
2023-01-23T00:57:34.401Z,101197.88
2023-01-23T00:58:36.678Z,101197.06
2023-01-23T00:59:38.657Z,101193.66
2023-01-23T01:00:40.795Z,101188.59
2023-01-23T01:01:42.582Z,101163.44
2023-01-23T01:02:45.442Z,101196.41
2023-01-23T01:03:47.750Z,101197.00
2023-01-23T01:04:49.499Z,101191.31
2023-01-23T01:05:52.216Z,101200.00
2023-01-23T01:06:54.154Z,101171.44
2023-01-23T01:07:55.928Z,101197.53
2023-01-23T01:08:58.881Z,101196.66
2023-01-23T01:10:01.139Z,101194.91
2023-01-23T01:11:03.157Z,101195.84
2023-01-23T01:12:05.638Z,101196.69
2023-01-23T01:13:08.289Z,101196.66
2023-01-23T01:14:10.779Z,101204.41
2023-01-23T01:15:13.535Z,101188.78
2023-01-23T01:16:15.615Z,101194.97
2023-01-23T01:17:17.496Z,101200.94
2023-01-23T01:18:21.644Z,101194.97
2023-01-23T01:19:23.450Z,101195.84
2023-01-23T01:20:27.095Z,101156.75
2023-01-23T01:21:29.285Z,101207.84
2023-01-23T01:22:31.506Z,101206.94
2023-01-23T01:23:33.628Z,101186.13
2023-01-23T01:24:35.613Z,101179.25
2023-01-23T01:25:37.873Z,101205.25
2023-01-23T01:26:40.395Z,101203.56
2023-01-23T01:27:42.206Z,101203.59
2023-01-23T01:28:44.175Z,101206.19
2023-01-23T01:29:45.932Z,101205.34
2023-01-23T01:30:47.836Z,101194.97
2023-01-23T01:31:49.766Z,101203.66
2023-01-23T01:32:54.084Z,101202.88
2023-01-23T01:33:56.096Z,101197.53
2023-01-23T01:34:57.915Z,101201.16
2023-01-23T01:35:59.727Z,101205.38
2023-01-23T01:37:02.034Z,101198.53
2023-01-23T01:38:03.931Z,101202.78
2023-01-23T01:39:06.731Z,101195.91
2023-01-23T01:40:13.575Z,101195.88
2023-01-23T01:41:16.436Z,101195.94
2023-01-23T01:42:18.586Z,101199.41
2023-01-23T01:43:24.815Z,101142.13
2023-01-23T01:44:28.992Z,101191.59
2023-01-23T01:46:08.785Z,101204.66
2023-01-23T01:47:16.011Z,101208.13
2023-01-23T01:48:20.114Z,101210.72
2023-01-23T01:49:30.563Z,101212.50
2023-01-23T01:50:32.309Z,101215.06
2023-01-23T01:51:50.779Z,101219.47
2023-01-23T01:52:53.176Z,101214.31
2023-01-23T01:54:21.992Z,101213.44
2023-01-23T01:55:25.026Z,101218.59
2023-01-23T01:56:29.030Z,101240.97
2023-01-23T01:57:36.166Z,101221.25
2023-01-23T01:58:40.770Z,101223.03
2023-01-23T02:00:10.430Z,101222.16
2023-01-23T02:01:12.300Z,101221.34
2023-01-23T02:02:19.565Z,101218.75
2023-01-23T02:03:21.700Z,101224.88
2023-01-23T02:04:24.012Z,101220.56
2023-01-23T02:05:31.479Z,101215.41
2023-01-23T02:06:33.218Z,101220.56
2023-01-23T02:07:46.229Z,101214.66
2023-01-23T02:08:57.218Z,101217.28
2023-01-23T02:09:59.770Z,101219.84
2023-01-23T02:11:05.339Z,101213.81
2023-01-23T02:12:07.543Z,101220.78
2023-01-23T02:13:39.813Z,101215.66
2023-01-23T02:14:42.507Z,101222.44
2023-01-23T02:15:45.227Z,101223.47
2023-01-23T02:16:51.172Z,101223.53
2023-01-23T02:17:54.930Z,101220.06
2023-01-23T02:19:08.636Z,101224.34
2023-01-23T02:20:27.981Z,101220.16
2023-01-23T02:21:31.642Z,101227.06
2023-01-23T02:22:57.865Z,101222.72
2023-01-23T02:24:25.764Z,101219.84
2023-01-23T02:25:46.135Z,101236.34
2023-01-23T02:26:48.269Z,101236.34
2023-01-23T02:27:50.268Z,101238.91
2023-01-23T02:28:54.197Z,101239.78
2023-01-23T02:29:56.770Z,101237.22
2023-01-23T02:30:58.878Z,101239.00
2023-01-23T02:32:00.790Z,101227.88
2023-01-23T02:33:21.319Z,101239.06
2023-01-23T02:34:23.835Z,101235.78
2023-01-23T02:35:30.772Z,101242.66
2023-01-23T02:36:34.967Z,101229.50
2023-01-23T02:37:40.944Z,101233.94
2023-01-23T02:38:54.691Z,101237.31
2023-01-23T02:39:56.935Z,101217.28
2023-01-23T02:41:05.824Z,101239.78
2023-01-23T02:42:08.559Z,101236.34
2023-01-23T02:43:16.188Z,101238.03
2023-01-23T02:44:27.826Z,101235.47
2023-01-23T02:45:30.949Z,101232.06
2023-01-23T02:46:36.509Z,101233.78
2023-01-23T02:47:40.783Z,101217.28
2023-01-23T02:48:44.128Z,101221.78
2023-01-23T02:49:47.303Z,101163.63
2023-01-23T02:50:51.870Z,101226.94
2023-01-23T02:51:56.807Z,101226.09
2023-01-23T02:52:59.566Z,101218.38
2023-01-23T02:54:03.836Z,101228.63
2023-01-23T02:55:06.307Z,101210.50
2023-01-23T02:56:09.160Z,101205.31
2023-01-23T02:57:11.676Z,101225.25
2023-01-23T02:58:32.543Z,101223.59
2023-01-23T02:59:53.141Z,101216.53
2023-01-23T03:00:55.208Z,101222.66
2023-01-23T03:01:57.713Z,101242.31
2023-01-23T03:02:59.577Z,101214.88
2023-01-23T03:04:04.682Z,101227.72
2023-01-23T03:05:07.481Z,101225.09
2023-01-23T03:06:10.481Z,101185.28
2023-01-23T03:07:13.033Z,101220.81
2023-01-23T03:08:15.475Z,101220.00
2023-01-23T03:09:18.222Z,101212.25
2023-01-23T03:10:20.691Z,101213.97
2023-01-23T03:11:23.847Z,101216.53
2023-01-23T03:12:25.769Z,101213.09
2023-01-23T03:13:27.523Z,101217.38
2023-01-23T03:14:30.130Z,101212.19
2023-01-23T03:15:32.063Z,101220.78
2023-01-23T03:16:36.614Z,101224.19
2023-01-23T03:17:40.202Z,101248.22
2023-01-23T03:18:53.462Z,101227.66
2023-01-23T03:19:57.840Z,101228.53
2023-01-23T03:21:07.310Z,101243.16
2023-01-23T03:22:09.570Z,101235.44
2023-01-23T03:23:11.806Z,101237.13
2023-01-23T03:24:14.563Z,101232.81
2023-01-23T03:25:17.039Z,101234.53
2023-01-23T03:26:18.801Z,101232.00
2023-01-23T03:27:20.717Z,101226.84
2023-01-23T03:28:41.023Z,101228.53
2023-01-23T03:30:01.923Z,101222.50
2023-01-23T03:31:03.824Z,101212.19
2023-01-23T03:32:06.852Z,101216.53
2023-01-23T03:33:09.188Z,101249.94
2023-01-23T03:34:11.479Z,101212.22
2023-01-23T03:35:16.637Z,101216.56
2023-01-23T03:36:20.078Z,101218.28
2023-01-23T03:37:22.136Z,101214.78
2023-01-23T03:38:24.143Z,101213.25
2023-01-23T03:39:44.434Z,101215.00
2023-01-23T03:41:04.806Z,101222.72
2023-01-23T03:42:07.124Z,101224.38
2023-01-23T03:43:10.255Z,101218.38
2023-01-23T03:44:13.890Z,101219.25
2023-01-23T03:45:15.731Z,101214.91
2023-01-23T03:46:17.726Z,101215.84
2023-01-23T03:47:21.006Z,101220.06
2023-01-23T03:48:22.746Z,101211.50
2023-01-23T03:49:25.188Z,101214.91
2023-01-23T03:50:27.678Z,101210.47
2023-01-23T03:51:29.902Z,101212.41
2023-01-23T03:52:32.377Z,101198.50
2023-01-23T03:53:34.754Z,101215.00
2023-01-23T03:54:37.060Z,101201.03
2023-01-23T03:55:39.065Z,101208.97
2023-01-23T03:56:42.450Z,101205.50
2023-01-23T03:57:44.229Z,101212.38
2023-01-23T03:58:46.191Z,101213.22
2023-01-23T03:59:48.580Z,101208.03
2023-01-23T04:00:50.824Z,101210.69
2023-01-23T04:01:52.585Z,101215.84
2023-01-23T04:02:54.910Z,101215.81
2023-01-23T04:03:57.146Z,101215.88
2023-01-23T04:04:58.842Z,101215.91
2023-01-23T04:06:00.729Z,101197.69
2023-01-23T04:07:04.127Z,101212.44
2023-01-23T04:08:05.916Z,101211.56
2023-01-23T04:09:07.712Z,101216.78
2023-01-23T04:10:12.102Z,101185.56
2023-01-23T04:11:15.078Z,101220.16
2023-01-23T04:12:17.315Z,101217.50
2023-01-23T04:13:19.125Z,101223.59
2023-01-23T04:14:22.082Z,101229.72
2023-01-23T04:15:23.921Z,101207.28
2023-01-23T04:16:27.711Z,101229.78
2023-01-23T04:17:31.211Z,101227.97
2023-01-23T04:18:33.728Z,101230.56
2023-01-23T04:19:36.098Z,101227.06
2023-01-23T04:20:38.410Z,101222.72
2023-01-23T04:21:40.469Z,101242.44
2023-01-23T04:22:42.416Z,101243.34
2023-01-23T04:23:44.349Z,101237.31
2023-01-23T04:24:46.726Z,101243.34
2023-01-23T04:25:48.973Z,101240.81
2023-01-23T04:26:51.895Z,101245.06
2023-01-23T04:27:53.767Z,101252.84
2023-01-23T04:28:55.576Z,101246.75
2023-01-23T04:29:58.627Z,101250.16
2023-01-23T04:31:01.659Z,101245.03
2023-01-23T04:32:04.868Z,101246.72
2023-01-23T04:33:07.466Z,101244.16
2023-01-23T04:34:09.532Z,101265.56
2023-01-23T04:35:11.276Z,101218.16
2023-01-23T04:36:13.715Z,101217.31
2023-01-23T04:37:15.680Z,101241.59
2023-01-23T04:38:17.825Z,101235.63
2023-01-23T04:39:20.106Z,101235.53
2023-01-23T04:40:22.501Z,101238.97
2023-01-23T04:41:27.059Z,101238.94
2023-01-23T04:42:28.926Z,101236.34
2023-01-23T04:43:31.569Z,101245.75
2023-01-23T04:44:33.771Z,101244.84
2023-01-23T04:45:35.823Z,101250.00
2023-01-23T04:46:39.309Z,101256.03
2023-01-23T04:47:41.099Z,101254.28
2023-01-23T04:48:44.230Z,101249.19
2023-01-23T04:49:45.943Z,101253.47
2023-01-23T04:50:48.767Z,101251.69
2023-01-23T04:51:51.583Z,101255.16
2023-01-23T04:52:54.023Z,101265.44
2023-01-23T04:53:56.084Z,101253.41
2023-01-23T04:54:58.339Z,101262.00
2023-01-23T04:56:01.226Z,101253.41
2023-01-23T04:57:03.187Z,101262.00
2023-01-23T04:58:05.028Z,101258.53
2023-01-23T04:59:06.973Z,101260.28
2023-01-23T05:00:11.000Z,101263.72
2023-01-23T05:01:13.232Z,101255.97
2023-01-23T05:02:16.374Z,101252.47
2023-01-23T05:03:18.882Z,101259.50
2023-01-23T05:04:20.553Z,101260.34
2023-01-23T05:05:24.471Z,101259.50
2023-01-23T05:06:26.934Z,101261.22
2023-01-23T05:07:29.107Z,101250.97
2023-01-23T05:08:31.239Z,101216.19
2023-01-23T05:09:33.383Z,101256.94
2023-01-23T05:10:35.102Z,101196.19
2023-01-23T05:11:37.807Z,101256.03
2023-01-23T05:12:40.703Z,101254.34
2023-01-23T05:13:42.753Z,101253.50
2023-01-23T05:14:45.312Z,101262.16
2023-01-23T05:15:47.182Z,101262.25
2023-01-23T05:16:49.615Z,101263.06
2023-01-23T05:17:51.513Z,101262.25
2023-01-23T05:18:53.318Z,101257.19
2023-01-23T05:19:55.254Z,101257.22
2023-01-23T05:20:57.051Z,101232.19
2023-01-23T05:21:58.969Z,101259.84
2023-01-23T05:23:00.830Z,101258.91
2023-01-23T05:24:02.513Z,101259.84
2023-01-23T05:25:05.038Z,101258.06
2023-01-23T05:26:07.193Z,101258.91
2023-01-23T05:27:09.449Z,101258.88
2023-01-23T05:28:11.847Z,101270.06
2023-01-23T05:29:14.251Z,101267.44
2023-01-23T05:30:17.785Z,101257.94
2023-01-23T05:31:19.878Z,101265.75
2023-01-23T05:32:21.855Z,101264.91
2023-01-23T05:33:23.926Z,101241.56
2023-01-23T05:34:26.396Z,101264.91
2023-01-23T05:35:29.261Z,101252.75
2023-01-23T05:36:31.199Z,101261.44
2023-01-23T05:37:33.403Z,101266.59
2023-01-23T05:38:35.450Z,101267.47
2023-01-23T05:39:37.149Z,101266.63
2023-01-23T05:40:38.997Z,101260.69
2023-01-23T05:41:40.779Z,101205.09
2023-01-23T05:42:42.424Z,101258.06
2023-01-23T05:43:45.118Z,101264.13
2023-01-23T05:44:47.103Z,101266.72
2023-01-23T05:45:49.037Z,101255.34
2023-01-23T05:46:51.069Z,101260.66
2023-01-23T05:47:52.923Z,101268.41
2023-01-23T05:48:54.788Z,101265.00
2023-01-23T05:49:56.651Z,101270.09
2023-01-23T05:50:58.427Z,101258.78
2023-01-23T05:52:00.234Z,101270.09
2023-01-23T05:53:02.215Z,101265.78
2023-01-23T05:54:04.252Z,101276.97
2023-01-23T05:55:06.573Z,101273.53
2023-01-23T05:56:09.215Z,101271.81
2023-01-23T05:57:11.843Z,101271.84
2023-01-23T05:58:15.983Z,101270.97
2023-01-23T05:59:17.983Z,101268.31
2023-01-23T06:00:20.748Z,101272.66
2023-01-23T06:01:22.887Z,101238.81
2023-01-23T06:02:24.695Z,101261.28
2023-01-23T06:03:27.056Z,101272.59
2023-01-23T06:04:28.872Z,101274.31
2023-01-23T06:05:30.751Z,101273.47
2023-01-23T06:06:32.396Z,101269.16
2023-01-23T06:07:34.267Z,101272.63
2023-01-23T06:08:35.928Z,101264.91
2023-01-23T06:09:37.880Z,101276.91
2023-01-23T06:10:41.781Z,101274.34
2023-01-23T06:11:44.143Z,101264.03
2023-01-23T06:12:46.072Z,101271.78
2023-01-23T06:13:47.866Z,101263.09
2023-01-23T06:14:49.866Z,101255.25
2023-01-23T06:15:52.031Z,101276.91
2023-01-23T06:16:54.227Z,101270.94
2023-01-23T06:17:56.158Z,101267.47
2023-01-23T06:18:58.522Z,101269.19
2023-01-23T06:20:00.599Z,101276.22
2023-01-23T06:21:02.456Z,101265.91
2023-01-23T06:22:04.365Z,101273.69
2023-01-23T06:23:06.126Z,101262.50
2023-01-23T06:24:08.610Z,101265.16
2023-01-23T06:25:10.854Z,101267.59
2023-01-23T06:26:13.395Z,101258.91
2023-01-23T06:27:15.599Z,101272.75
2023-01-23T06:28:18.276Z,101287.31
2023-01-23T06:29:20.183Z,101248.41
2023-01-23T06:30:22.357Z,101277.09
2023-01-23T06:31:25.129Z,101277.09
2023-01-23T06:32:27.455Z,101289.97
2023-01-23T06:33:29.606Z,101277.94
2023-01-23T06:34:31.778Z,101274.59
2023-01-23T06:35:33.788Z,101278.00
2023-01-23T06:36:36.425Z,101278.84
2023-01-23T06:37:39.122Z,101267.72
2023-01-23T06:38:40.941Z,101281.50
2023-01-23T06:39:43.539Z,101271.06
2023-01-23T06:40:45.457Z,101283.19
2023-01-23T06:41:47.293Z,101265.78
2023-01-23T06:42:50.980Z,101289.16
2023-01-23T06:43:53.702Z,101287.44
2023-01-23T06:44:55.888Z,101297.78
2023-01-23T06:45:57.962Z,101271.84
2023-01-23T06:46:59.701Z,101296.94
2023-01-23T06:48:01.544Z,101299.53
2023-01-23T06:49:06.218Z,101296.94
2023-01-23T06:50:08.977Z,101294.31
2023-01-23T06:51:11.152Z,101298.56
2023-01-23T06:52:13.608Z,101298.59
2023-01-23T06:53:16.725Z,101299.53
2023-01-23T06:54:18.425Z,101302.22
2023-01-23T06:55:21.399Z,101303.88
2023-01-23T06:56:23.210Z,101302.84
2023-01-23T06:57:25.005Z,101306.41
2023-01-23T06:58:27.780Z,101299.53
2023-01-23T06:59:29.507Z,101308.97
2023-01-23T07:00:32.589Z,101308.09
2023-01-23T07:01:35.393Z,101303.75
2023-01-23T07:02:39.720Z,101309.84
2023-01-23T07:03:45.040Z,101311.56
2023-01-23T07:04:47.155Z,101315.88
2023-01-23T07:05:49.234Z,101294.16
2023-01-23T07:06:51.542Z,101318.47
2023-01-23T07:07:53.245Z,101330.47
2023-01-23T07:08:56.307Z,101321.03
2023-01-23T07:09:58.072Z,101325.31
2023-01-23T07:11:00.877Z,101320.13
2023-01-23T07:12:02.648Z,101320.13
2023-01-23T07:13:06.059Z,101331.44
2023-01-23T07:14:07.961Z,101327.13
2023-01-23T07:15:10.362Z,101336.69
2023-01-23T07:16:12.073Z,101335.88
2023-01-23T07:17:14.382Z,101333.31
2023-01-23T07:18:16.180Z,101338.44
2023-01-23T07:19:18.019Z,101335.09
2023-01-23T07:20:20.851Z,101339.41
2023-01-23T07:21:22.941Z,101336.84
2023-01-23T07:22:24.698Z,101329.09
2023-01-23T07:23:26.780Z,101342.91
2023-01-23T07:24:31.800Z,101284.78
2023-01-23T07:25:33.866Z,101340.59
2023-01-23T07:26:35.767Z,101343.16
2023-01-23T07:27:37.588Z,101335.38
2023-01-23T07:28:40.055Z,101339.66
2023-01-23T07:29:43.541Z,101346.44
2023-01-23T07:30:47.202Z,101335.25
2023-01-23T07:31:49.598Z,101344.84
2023-01-23T07:32:51.372Z,101342.25
2023-01-23T07:33:53.599Z,101347.38
2023-01-23T07:34:55.463Z,101353.44
2023-01-23T07:35:57.598Z,101350.88
2023-01-23T07:36:59.331Z,101323.22
2023-01-23T07:38:01.322Z,101347.56
2023-01-23T07:39:03.389Z,101352.72
2023-01-23T07:40:05.668Z,101342.34
2023-01-23T07:41:07.652Z,101359.72
2023-01-23T07:42:10.243Z,101339.94
2023-01-23T07:43:12.463Z,101346.91
2023-01-23T07:44:19.903Z,101342.66
2023-01-23T07:45:21.688Z,101342.72
2023-01-23T07:46:26.173Z,101340.16
2023-01-23T07:47:28.579Z,101342.75
2023-01-23T07:48:30.671Z,101345.31
2023-01-23T07:49:32.994Z,101347.97
2023-01-23T07:50:36.010Z,101341.25
2023-01-23T07:51:38.063Z,101343.00
2023-01-23T07:52:40.726Z,101348.19
2023-01-23T07:53:42.628Z,101348.25
2023-01-23T07:54:44.371Z,101346.50
2023-01-23T07:55:46.243Z,101349.94
2023-01-23T07:56:52.414Z,101349.06
2023-01-23T07:57:55.411Z,101351.69
2023-01-23T07:58:57.592Z,101348.19
2023-01-23T07:59:59.619Z,101355.13
2023-01-23T08:01:08.273Z,101340.47
2023-01-23T08:02:10.916Z,101346.56
2023-01-23T08:03:13.023Z,101348.34
2023-01-23T08:04:15.335Z,101331.75
2023-01-23T08:05:17.417Z,101328.38
2023-01-23T08:06:20.203Z,101349.31
2023-01-23T08:07:22.702Z,101342.38
2023-01-23T08:08:25.766Z,101346.78
2023-01-23T08:09:27.862Z,101345.16
2023-01-23T08:10:30.013Z,101347.75
2023-01-23T08:11:34.165Z,101352.97
2023-01-23T08:12:36.675Z,101348.56
2023-01-23T08:13:39.081Z,101351.91
2023-01-23T08:14:41.716Z,101352.91
2023-01-23T08:15:43.567Z,101352.03
2023-01-23T08:16:49.092Z,101349.38
2023-01-23T08:17:50.879Z,101349.38
2023-01-23T08:18:54.423Z,101349.38
2023-01-23T08:19:56.631Z,101353.66
2023-01-23T08:21:01.885Z,101354.53
2023-01-23T08:22:04.682Z,101341.56
2023-01-23T08:23:06.569Z,101348.50
2023-01-23T08:24:10.512Z,101347.66
2023-01-23T08:25:12.334Z,101348.53
2023-01-23T08:26:16.898Z,101341.75
2023-01-23T08:27:18.959Z,101340.00
2023-01-23T08:28:21.551Z,101346.09
2023-01-23T08:29:23.232Z,101349.53
2023-01-23T08:30:25.436Z,101344.34
2023-01-23T08:31:33.452Z,101336.63
2023-01-23T08:32:36.544Z,101333.19
2023-01-23T08:33:40.809Z,101337.50
2023-01-23T08:34:44.062Z,101332.47
2023-01-23T08:35:53.873Z,101333.38
2023-01-23T08:36:58.009Z,101342.84
2023-01-23T08:38:00.452Z,101336.00
2023-01-23T08:39:02.595Z,101337.75
2023-01-23T08:40:05.806Z,101323.91
2023-01-23T08:41:09.991Z,101329.94
2023-01-23T08:42:12.964Z,101294.16
2023-01-23T08:43:16.814Z,101343.69
2023-01-23T08:44:18.758Z,101336.00
2023-01-23T08:45:23.475Z,101334.25
2023-01-23T08:46:26.762Z,101340.22
2023-01-23T08:47:28.786Z,101317.59
2023-01-23T08:48:31.373Z,101342.78
2023-01-23T08:49:33.882Z,101337.53
2023-01-23T08:50:36.147Z,101305.97
2023-01-23T08:51:38.227Z,101328.69
2023-01-23T08:52:40.925Z,101351.22
2023-01-23T08:53:42.853Z,101351.22
2023-01-23T08:54:45.488Z,101348.69
2023-01-23T08:55:47.469Z,101351.34
2023-01-23T08:56:49.515Z,101355.69
2023-01-23T08:57:51.432Z,101322.81
2023-01-23T08:58:53.485Z,101350.53
2023-01-23T08:59:55.185Z,101300.25
2023-01-23T09:00:59.471Z,101343.66
2023-01-23T09:02:01.483Z,101342.78
2023-01-23T09:03:04.058Z,101342.78
2023-01-23T09:04:06.598Z,101335.88
2023-01-23T09:05:09.163Z,101347.06
2023-01-23T09:06:15.799Z,101346.28
2023-01-23T09:07:17.704Z,101336.88
2023-01-23T09:08:20.064Z,101339.47
2023-01-23T09:09:22.283Z,101340.28
2023-01-23T09:10:26.097Z,101339.50
2023-01-23T09:11:28.757Z,101341.28
2023-01-23T09:12:33.938Z,101355.97
2023-01-23T09:13:38.466Z,101353.41
2023-01-23T09:14:40.932Z,101350.91
2023-01-23T09:15:43.588Z,101350.13
2023-01-23T09:16:45.501Z,101348.47
2023-01-23T09:17:48.522Z,101342.38
2023-01-23T09:18:50.858Z,101320.78
2023-01-23T09:19:54.139Z,101345.06
2023-01-23T09:20:56.243Z,101344.19
2023-01-23T09:21:58.482Z,101351.09
2023-01-23T09:23:00.395Z,101362.31
2023-01-23T09:24:02.301Z,101379.53
2023-01-23T09:25:04.740Z,101366.66
2023-01-23T09:26:09.129Z,101357.13
2023-01-23T09:27:11.318Z,101363.22
2023-01-23T09:28:13.257Z,101366.59
2023-01-23T09:29:15.667Z,101362.28
2023-01-23T09:30:17.923Z,101372.66
2023-01-23T09:31:20.112Z,101367.50
2023-01-23T09:32:25.006Z,101344.06
2023-01-23T09:33:30.806Z,101369.19
2023-01-23T09:34:32.968Z,101367.44
2023-01-23T09:35:35.349Z,101374.25
2023-01-23T09:36:43.175Z,101360.31
2023-01-23T09:38:00.843Z,101365.66
2023-01-23T09:39:03.722Z,101368.25
2023-01-23T09:40:08.925Z,101366.63
2023-01-23T09:41:27.894Z,101368.31
2023-01-23T09:42:33.988Z,101368.38
2023-01-23T09:43:46.272Z,101368.44
2023-01-23T09:44:57.876Z,101367.56
2023-01-23T09:46:01.653Z,101371.00
2023-01-23T09:47:32.888Z,101361.53
2023-01-23T09:48:55.123Z,101345.03
2023-01-23T09:50:02.871Z,101329.25
2023-01-23T09:51:21.348Z,101362.38
2023-01-23T09:52:28.499Z,101354.66
2023-01-23T09:53:37.631Z,101332.22
2023-01-23T09:54:55.051Z,101352.19
2023-01-23T09:56:05.213Z,101334.03
2023-01-23T09:57:19.767Z,101340.19
2023-01-23T09:58:32.291Z,101340.25
2023-01-23T09:59:50.251Z,101344.59
2023-01-23T10:01:01.084Z,101353.34
2023-01-23T10:02:11.738Z,101351.63
2023-01-23T10:03:20.607Z,101344.66
2023-01-23T10:04:23.556Z,101349.09
2023-01-23T10:05:41.460Z,101355.22
2023-01-23T10:06:55.470Z,101338.97
2023-01-23T10:08:22.182Z,101344.25
2023-01-23T10:09:51.776Z,101352.91
2023-01-23T10:11:05.388Z,101358.13
2023-01-23T10:12:11.138Z,101352.09
2023-01-23T10:13:18.940Z,101348.66
2023-01-23T10:14:36.791Z,101354.63
2023-01-23T10:16:18.501Z,101293.00
2023-01-23T10:17:37.892Z,101350.22
2023-01-23T10:18:47.641Z,101347.66
2023-01-23T10:20:14.942Z,101351.06
2023-01-23T10:21:25.931Z,101350.28
2023-01-23T10:22:52.880Z,101346.03
2023-01-23T10:24:03.009Z,101340.91
2023-01-23T10:25:22.730Z,101330.56
2023-01-23T10:26:33.859Z,101324.59
2023-01-23T10:27:45.643Z,101340.88
2023-01-23T10:28:48.724Z,101351.09
2023-01-23T10:29:58.655Z,101351.06
2023-01-23T10:31:04.051Z,101358.84
2023-01-23T10:32:25.059Z,101360.47
2023-01-23T10:33:42.323Z,101359.59
2023-01-23T10:34:54.381Z,101362.97
2023-01-23T10:36:17.646Z,101370.78
2023-01-23T10:38:10.942Z,101371.50
2023-01-23T10:39:25.778Z,101380.13
2023-01-23T10:40:46.435Z,101368.06
2023-01-23T10:41:51.253Z,101368.97
2023-01-23T10:43:02.844Z,101368.13
2023-01-23T10:44:25.364Z,101375.91
2023-01-23T10:45:27.549Z,101377.69
2023-01-23T10:46:35.556Z,101376.00
2023-01-23T10:47:46.369Z,101345.69
2023-01-23T10:48:54.107Z,101375.00
2023-01-23T10:49:56.422Z,101378.31
2023-01-23T10:50:58.955Z,101376.53
2023-01-23T10:52:02.297Z,101374.81
2023-01-23T10:53:10.882Z,101382.59
2023-01-23T10:54:30.936Z,101373.97
2023-01-23T10:55:35.282Z,101370.50
2023-01-23T10:56:47.784Z,101367.84
2023-01-23T10:57:56.227Z,101391.03
2023-01-23T10:59:02.330Z,101379.03
2023-01-23T11:00:25.372Z,101368.63
2023-01-23T11:01:35.391Z,101365.22
2023-01-23T11:02:40.511Z,101360.88
2023-01-23T11:03:45.749Z,101370.38
2023-01-23T11:04:51.960Z,101372.25
2023-01-23T11:06:16.573Z,101369.63
2023-01-23T11:07:22.235Z,101363.63
2023-01-23T11:08:31.073Z,101361.84
2023-01-23T11:09:33.749Z,101346.19
2023-01-23T11:10:36.389Z,101361.81
2023-01-23T11:11:40.697Z,101336.72
2023-01-23T11:12:51.930Z,101372.25
2023-01-23T11:14:07.858Z,101360.28
2023-01-23T11:15:20.222Z,101365.53
2023-01-23T11:16:24.660Z,101357.78
2023-01-23T11:17:34.181Z,101350.81
2023-01-23T11:18:45.057Z,101357.81
2023-01-23T11:19:49.588Z,101355.31
2023-01-23T11:20:55.834Z,101356.25
2023-01-23T11:22:03.505Z,101345.06
2023-01-23T11:23:11.878Z,101354.53
2023-01-23T11:24:39.678Z,101358.06
2023-01-23T11:25:50.268Z,101356.44
2023-01-23T11:27:02.406Z,101364.19
2023-01-23T11:28:20.775Z,101370.16
2023-01-23T11:29:26.263Z,101357.25
2023-01-23T11:30:45.034Z,101364.19
2023-01-23T11:31:48.101Z,101363.06
2023-01-23T11:33:02.261Z,101361.34
2023-01-23T11:34:14.153Z,101356.25
2023-01-23T11:35:21.850Z,101306.03
2023-01-23T11:36:30.627Z,101353.84
2023-01-23T11:37:40.430Z,101351.34
2023-01-23T11:38:52.611Z,101367.69
2023-01-23T11:40:07.413Z,101334.94
2023-01-23T11:41:12.767Z,101323.69
2023-01-23T11:42:16.485Z,101330.63
2023-01-23T11:43:21.336Z,101329.72
2023-01-23T11:44:28.188Z,101321.00
2023-01-23T11:46:02.068Z,101328.00
2023-01-23T11:47:07.605Z,101335.75
2023-01-23T11:48:19.509Z,101329.78
2023-01-23T11:49:29.976Z,101329.00
2023-01-23T11:50:55.320Z,101334.16
2023-01-23T11:52:23.330Z,101334.22
2023-01-23T11:53:45.336Z,101304.75
2023-01-23T11:55:03.985Z,101331.59
2023-01-23T11:56:18.977Z,101332.31
2023-01-23T11:57:36.608Z,101323.59
2023-01-23T11:58:59.723Z,101329.66
2023-01-23T12:00:24.131Z,101319.25
2023-01-23T12:02:14.177Z,101331.25
2023-01-23T12:03:51.200Z,101335.41
2023-01-23T12:05:15.327Z,101271.25
2023-01-23T12:06:42.902Z,101326.03
2023-01-23T12:08:08.733Z,101324.28
2023-01-23T12:09:20.372Z,101320.00
2023-01-23T12:10:49.209Z,101309.59
2023-01-23T12:12:04.775Z,101313.00
2023-01-23T12:13:21.482Z,101319.94
2023-01-23T12:14:31.997Z,101305.34
2023-01-23T12:15:55.892Z,101322.63
2023-01-23T12:17:20.918Z,101298.53
2023-01-23T12:18:45.670Z,101307.22
2023-01-23T12:20:02.249Z,101305.63
2023-01-23T12:21:04.320Z,101298.00
2023-01-23T12:22:25.110Z,101352.41
2023-01-23T12:24:04.779Z,101300.56
2023-01-23T12:25:34.062Z,101293.69
2023-01-23T12:26:45.271Z,101301.53
2023-01-23T12:27:50.282Z,101292.88
2023-01-23T12:29:34.851Z,101296.38